OHPMK EFHV-EFHN

Flight info

Callsign OHPMK
Flight time 0h 38m
Altitude 6000
Route NUNTO
Aircraft P28R/L-SDGRY/S

Departure

Time 2026-04-13 13:10
Airport Hyvinkää Airfield (EFHV)

Arrival

Time 2026-04-13 13:49
Airport Hanko Airfield (EFHN)
Time Latitude Longitude Altitude Speed Heading
2026-04-13 12:28 60.65377 24.88476 440 ft 0 kts 310°
2026-04-13 12:57 60.65384 24.88402 436 ft 11 kts 305°
2026-04-13 12:57 60.65437 24.88299 438 ft 11 kts 315°
2026-04-13 12:57 60.65492 24.88361 439 ft 10 kts 46°
2026-04-13 12:58 60.65523 24.88429 440 ft 4 kts 48°
2026-04-13 12:58 60.65549 24.88484 441 ft 8 kts 45°
2026-04-13 12:58 60.65612 24.88617 441 ft 18 kts 49°
2026-04-13 12:58 60.65720 24.88840 439 ft 23 kts 47°
2026-04-13 12:59 60.65821 24.89042 442 ft 18 kts 48°
2026-04-13 12:59 60.65878 24.89151 445 ft 0 kts 26°
2026-04-13 13:08 60.65913 24.89171 448 ft 13 kts 16°
2026-04-13 13:09 60.65935 24.89142 450 ft 6 kts 224°
2026-04-13 13:09 60.65796 24.88860 443 ft 56 kts 226°
2026-04-13 13:09 60.65427 24.88092 492 ft 87 kts 220°
2026-04-13 13:09 60.64962 24.87166 665 ft 99 kts 220°
2026-04-13 13:10 60.64618 24.85942 860 ft 103 kts 261°
2026-04-13 13:10 60.64826 24.84626 1046 ft 106 kts 315°
2026-04-13 13:10 60.65493 24.84268 1206 ft 101 kts 23°
2026-04-13 13:10 60.66161 24.84758 1303 ft 114 kts 351°
2026-04-13 13:11 60.66693 24.83422 1251 ft 137 kts 296°
2026-04-13 13:11 60.66858 24.81606 1397 ft 134 kts 267°
2026-04-13 13:11 60.66662 24.79729 1430 ft 138 kts 232°
2026-04-13 13:11 60.65919 24.78634 1547 ft 131 kts 212°
2026-04-13 13:12 60.65222 24.77437 1678 ft 129 kts 216°
2026-04-13 13:12 60.64541 24.76297 1804 ft 130 kts 220°
2026-04-13 13:12 60.64726 24.74733 1233 ft 159 kts 316°
2026-04-13 13:12 60.65251 24.73128 1754 ft 123 kts 277°
2026-04-13 13:13 60.65167 24.71548 2054 ft 114 kts 253°
2026-04-13 13:13 60.64697 24.70220 2169 ft 118 kts 213°
2026-04-13 13:13 60.64021 24.69181 2319 ft 125 kts 215°
2026-04-13 13:13 60.63312 24.68082 2468 ft 129 kts 212°
2026-04-13 13:14 60.62569 24.66975 2606 ft 134 kts 212°
2026-04-13 13:14 60.61844 24.65904 2812 ft 127 kts 212°
2026-04-13 13:14 60.61154 24.64892 3055 ft 117 kts 213°
2026-04-13 13:14 60.60517 24.63959 3305 ft 110 kts 212°
2026-04-13 13:15 60.59913 24.63082 3546 ft 105 kts 212°
2026-04-13 13:15 60.59341 24.62254 3776 ft 97 kts 211°
2026-04-13 13:15 60.58791 24.61456 3986 ft 97 kts 210°
2026-04-13 13:15 60.58236 24.60650 4218 ft 100 kts 210°
2026-04-13 13:16 60.57668 24.59822 4448 ft 101 kts 210°
2026-04-13 13:16 60.57093 24.58985 4686 ft 102 kts 210°
2026-04-13 13:16 60.56526 24.58159 4919 ft 101 kts 211°
2026-04-13 13:16 60.55950 24.57323 5155 ft 101 kts 211°
2026-04-13 13:17 60.55381 24.56497 5382 ft 100 kts 213°
2026-04-13 13:17 60.54822 24.55684 5599 ft 98 kts 213°
2026-04-13 13:17 60.54278 24.54895 5818 ft 95 kts 213°
2026-04-13 13:17 60.53743 24.54124 6031 ft 93 kts 212°
2026-04-13 13:18 60.53228 24.53378 6246 ft 90 kts 212°
2026-04-13 13:18 60.52687 24.52596 6362 ft 104 kts 213°
2026-04-13 13:18 60.52047 24.51658 6350 ft 123 kts 214°
2026-04-13 13:18 60.51317 24.50590 6349 ft 134 kts 214°
2026-04-13 13:19 60.50548 24.49476 6341 ft 136 kts 215°
2026-04-13 13:19 60.49778 24.48357 6334 ft 136 kts 214°
2026-04-13 13:19 60.49018 24.47257 6422 ft 130 kts 214°
2026-04-13 13:19 60.48288 24.46204 6464 ft 130 kts 214°
2026-04-13 13:20 60.47544 24.45129 6470 ft 132 kts 214°
2026-04-13 13:20 60.46794 24.44050 6482 ft 133 kts 215°
2026-04-13 13:20 60.46043 24.42962 6482 ft 133 kts 214°
2026-04-13 13:20 60.45299 24.41875 6486 ft 134 kts 215°
2026-04-13 13:21 60.44538 24.40790 6482 ft 134 kts 214°
2026-04-13 13:21 60.43777 24.39697 6486 ft 135 kts 214°
2026-04-13 13:21 60.43011 24.38584 6490 ft 136 kts 214°
2026-04-13 13:21 60.42240 24.37477 6490 ft 136 kts 214°
2026-04-13 13:22 60.41470 24.36365 6485 ft 136 kts 214°
2026-04-13 13:22 60.40695 24.35257 6481 ft 136 kts 214°
2026-04-13 13:22 60.39923 24.34150 6486 ft 136 kts 214°
2026-04-13 13:22 60.39164 24.33063 6484 ft 135 kts 214°
2026-04-13 13:23 60.38401 24.31970 6481 ft 134 kts 214°
2026-04-13 13:23 60.37642 24.30871 6483 ft 134 kts 214°
2026-04-13 13:23 60.36868 24.29780 6478 ft 137 kts 213°
2026-04-13 13:23 60.36090 24.28666 6480 ft 137 kts 214°
2026-04-13 13:24 60.35314 24.27551 6483 ft 137 kts 214°
2026-04-13 13:24 60.34535 24.26432 6484 ft 138 kts 214°
2026-04-13 13:24 60.33754 24.25314 6482 ft 137 kts 214°
2026-04-13 13:24 60.32992 24.24226 6485 ft 136 kts 214°
2026-04-13 13:25 60.32221 24.23122 6480 ft 136 kts 214°
2026-04-13 13:25 60.31452 24.22025 6483 ft 135 kts 214°
2026-04-13 13:25 60.29934 24.19860 6481 ft 134 kts 215°
2026-04-13 13:26 60.29171 24.18774 6481 ft 134 kts 214°
2026-04-13 13:26 60.28410 24.17689 6482 ft 134 kts 215°
2026-04-13 13:26 60.27649 24.16608 6480 ft 133 kts 215°
2026-04-13 13:26 60.26890 24.15528 6477 ft 134 kts 215°
2026-04-13 13:27 60.26126 24.14443 6479 ft 134 kts 215°
2026-04-13 13:27 60.25371 24.13369 6480 ft 135 kts 215°
2026-04-13 13:27 60.24604 24.12280 6482 ft 136 kts 215°
2026-04-13 13:27 60.23832 24.11184 6483 ft 136 kts 215°
2026-04-13 13:28 60.23056 24.10084 6485 ft 136 kts 215°
2026-04-13 13:28 60.22280 24.08984 6489 ft 137 kts 215°
2026-04-13 13:28 60.21504 24.07885 6482 ft 136 kts 215°
2026-04-13 13:28 60.20730 24.06790 6485 ft 135 kts 214°
2026-04-13 13:29 60.19956 24.05693 6495 ft 136 kts 215°
2026-04-13 13:29 60.19176 24.04590 6494 ft 137 kts 215°
2026-04-13 13:29 60.18409 24.03504 6488 ft 137 kts 214°
2026-04-13 13:29 60.17626 24.02403 6487 ft 137 kts 215°
2026-04-13 13:30 60.16854 24.01312 6488 ft 135 kts 215°
2026-04-13 13:30 60.16088 24.00230 6488 ft 135 kts 214°
2026-04-13 13:30 60.15320 23.99149 6485 ft 135 kts 214°
2026-04-13 13:30 60.14553 23.98069 6492 ft 135 kts 214°
2026-04-13 13:31 60.13783 23.96983 6488 ft 136 kts 214°
2026-04-13 13:31 60.13007 23.95892 6477 ft 136 kts 214°
2026-04-13 13:31 60.12243 23.94820 6482 ft 136 kts 214°
2026-04-13 13:31 60.11471 23.93732 6478 ft 135 kts 214°
2026-04-13 13:32 60.10702 23.92652 6478 ft 135 kts 214°
2026-04-13 13:32 60.09935 23.91569 6481 ft 134 kts 215°
2026-04-13 13:32 60.09169 23.90503 6479 ft 134 kts 214°
2026-04-13 13:32 60.08418 23.89407 6483 ft 133 kts 222°
2026-04-13 13:33 60.07902 23.87889 6483 ft 132 kts 243°
2026-04-13 13:33 60.07460 23.86267 6480 ft 133 kts 241°
2026-04-13 13:33 60.07003 23.84667 6494 ft 133 kts 240°
2026-04-13 13:33 60.06546 23.83080 6488 ft 133 kts 239°
2026-04-13 13:34 60.06083 23.81482 6486 ft 133 kts 239°
2026-04-13 13:34 60.05618 23.79876 6488 ft 133 kts 239°
2026-04-13 13:34 60.05152 23.78268 6489 ft 133 kts 239°
2026-04-13 13:34 60.04689 23.76666 6488 ft 133 kts 239°
2026-04-13 13:35 60.04085 23.75296 6476 ft 132 kts 216°
2026-04-13 13:35 60.03392 23.74090 6477 ft 133 kts 220°
2026-04-13 13:35 60.02729 23.72805 6479 ft 133 kts 224°
2026-04-13 13:35 60.02096 23.71497 6483 ft 133 kts 224°
2026-04-13 13:36 60.01451 23.70172 6476 ft 133 kts 225°
2026-04-13 13:36 60.00811 23.68853 6479 ft 132 kts 224°
2026-04-13 13:36 60.00165 23.67540 6480 ft 133 kts 224°
2026-04-13 13:36 59.99514 23.66229 6480 ft 132 kts 224°
2026-04-13 13:37 59.98869 23.64917 6480 ft 133 kts 225°
2026-04-13 13:37 59.98284 23.63486 6477 ft 134 kts 231°
2026-04-13 13:37 59.97714 23.62020 6480 ft 134 kts 231°
2026-04-13 13:37 59.97150 23.60572 6484 ft 134 kts 231°
2026-04-13 13:38 59.96575 23.59101 6486 ft 135 kts 231°
2026-04-13 13:38 59.95997 23.57624 6484 ft 135 kts 231°
2026-04-13 13:38 59.95418 23.56148 6491 ft 134 kts 231°
2026-04-13 13:38 59.94843 23.54685 6483 ft 134 kts 231°
2026-04-13 13:39 59.94269 23.53225 6495 ft 134 kts 231°
2026-04-13 13:39 59.93690 23.51756 6492 ft 136 kts 231°
2026-04-13 13:39 59.93105 23.50277 6491 ft 136 kts 231°
2026-04-13 13:39 59.92513 23.48786 6402 ft 140 kts 231°
2026-04-13 13:40 59.91909 23.47265 6279 ft 143 kts 231°
2026-04-13 13:40 59.91285 23.45700 6154 ft 145 kts 230°
2026-04-13 13:40 59.90651 23.44119 6026 ft 146 kts 230°
2026-04-13 13:40 59.90013 23.42522 5902 ft 148 kts 231°
2026-04-13 13:41 59.89369 23.40908 5774 ft 149 kts 230°
2026-04-13 13:41 59.88744 23.39354 5632 ft 140 kts 230°
2026-04-13 13:41 59.88143 23.37859 5503 ft 137 kts 230°
2026-04-13 13:41 59.87551 23.36389 5364 ft 135 kts 230°
2026-04-13 13:42 59.86970 23.34940 5230 ft 134 kts 230°
2026-04-13 13:42 59.86392 23.33502 5092 ft 132 kts 230°
2026-04-13 13:42 59.85827 23.32098 4958 ft 131 kts 230°
2026-04-13 13:42 59.85260 23.30677 4829 ft 131 kts 232°
2026-04-13 13:43 59.84798 23.29124 4702 ft 130 kts 242°
2026-04-13 13:43 59.84407 23.27502 4552 ft 131 kts 243°
2026-04-13 13:43 59.84004 23.25840 4333 ft 135 kts 243°
2026-04-13 13:43 59.83592 23.24133 4108 ft 138 kts 243°
2026-04-13 13:44 59.83176 23.22402 3880 ft 139 kts 243°
2026-04-13 13:44 59.82754 23.20666 3660 ft 140 kts 243°
2026-04-13 13:44 59.82337 23.18950 3425 ft 139 kts 243°
2026-04-13 13:44 59.81912 23.17220 3191 ft 140 kts 243°
2026-04-13 13:45 59.81512 23.15464 2964 ft 139 kts 245°
2026-04-13 13:45 59.81119 23.13708 2727 ft 140 kts 246°
2026-04-13 13:45 59.81121 23.11841 2466 ft 141 kts 299°
2026-04-13 13:45 59.81840 23.10566 2231 ft 138 kts 327°
2026-04-13 13:46 59.82668 23.09714 1982 ft 130 kts 348°
2026-04-13 13:46 59.83529 23.09439 1728 ft 126 kts 16°
2026-04-13 13:46 59.84136 23.10555 1480 ft 119 kts 56°
2026-04-13 13:46 59.84647 23.11808 1249 ft 116 kts 50°
2026-04-13 13:47 59.85230 23.12889 1008 ft 113 kts 37°
2026-04-13 13:47 59.85856 23.13693 852 ft 102 kts 24°
2026-04-13 13:47 59.86535 23.13478 734 ft 101 kts 330°
2026-04-13 13:47 59.86785 23.12257 617 ft 97 kts 271°
2026-04-13 13:48 59.86600 23.11069 528 ft 90 kts 214°
2026-04-13 13:48 59.86120 23.10288 405 ft 92 kts 220°
2026-04-13 13:48 59.85628 23.09578 176 ft 82 kts 208°
2026-04-13 13:48 59.85175 23.08982 30 ft 69 kts 209°
2026-04-13 13:49 59.84873 23.08587 27 ft 41 kts 213°
2026-04-13 13:49 59.84669 23.08312 25 ft 31 kts 214°
2026-04-13 13:49 59.84507 23.08097 23 ft 26 kts 214°
2026-04-13 13:49 59.84400 23.07956 22 ft 11 kts 213°
2026-04-13 13:50 59.84364 23.07965 21 ft 6 kts 123°
2026-04-13 13:50 59.84338 23.08044 21 ft 7 kts 123°
2026-04-13 13:50 59.84323 23.08073 23 ft 0 kts 207°
2026-04-13 13:50 59.84315 23.08077 23 ft 0 kts 54°
2026-04-13 13:51 59.84317 23.08080 22 ft 0 kts 33°